Time,TemperatureF,DewpointF,PressureIn,WindDirection,WindDirectionDegrees,WindSpeedMPH,WindSpeedGustMPH,Humidity,HourlyPrecipIn,Conditions,Clouds,dailyrainin,SoftwareType,DateUTC
2013-08-02 00:01:00,56.3,51.0,0.00,ESE,112,0.1,1.9,82,0.00,,,0.00,WUHU216CR1000,2013-08-02 07:01:00,
2013-08-02 00:06:00,55.6,51.0,0.00,ESE,105,1.2,2.6,84,0.00,,,0.00,WUHU216CR1000,2013-08-02 07:06:00,
2013-08-02 00:11:00,55.6,51.0,0.00,ESE,105,1.2,2.6,84,0.00,,,0.00,WUHU216CR1000,2013-08-02 07:11:00,
2013-08-02 00:16:00,55.6,51.0,0.00,ESE,105,1.2,2.6,84,0.00,,,0.00,WUHU216CR1000,2013-08-02 07:16:00,
2013-08-02 00:21:00,54.8,50.5,0.00,WNW,296,0.4,2.6,85,0.00,,,0.00,WUHU216CR1000,2013-08-02 07:21:00,
2013-08-02 00:26:00,54.8,50.5,0.00,WNW,296,0.4,2.0,85,0.00,,,0.00,WUHU216CR1000,2013-08-02 07:26:00,
2013-08-02 00:31:00,54.8,50.5,0.00,WNW,296,0.4,2.0,85,0.00,,,0.00,WUHU216CR1000,2013-08-02 07:31:00,
2013-08-02 00:36:00,54.0,50.4,0.00,South,182,1.2,3.1,88,0.00,,,0.00,WUHU216CR1000,2013-08-02 07:36:00,
2013-08-02 00:41:00,54.0,50.4,0.00,South,182,1.2,3.1,88,0.00,,,0.00,WUHU216CR1000,2013-08-02 07:41:00,
2013-08-02 00:46:00,54.0,50.4,0.00,South,182,1.2,3.1,88,0.00,,,0.00,WUHU216CR1000,2013-08-02 07:46:00,
2013-08-02 00:51:00,54.0,50.3,0.00,East,96,1.0,3.1,87,0.00,,,0.00,WUHU216CR1000,2013-08-02 07:51:00,
2013-08-02 00:56:00,54.0,50.3,0.00,East,96,1.0,3.0,87,0.00,,,0.00,WUHU216CR1000,2013-08-02 07:56:00,
2013-08-02 01:01:00,54.0,50.3,0.00,East,96,1.0,3.0,87,0.00,,,0.00,WUHU216CR1000,2013-08-02 08:01:00,
2013-08-02 01:06:00,53.4,49.9,0.00,North,352,1.0,3.1,88,0.00,,,0.00,WUHU216CR1000,2013-08-02 08:06:00,
2013-08-02 01:11:00,53.4,49.9,0.00,North,352,1.0,3.1,88,0.00,,,0.00,WUHU216CR1000,2013-08-02 08:11:00,
2013-08-02 01:16:00,53.4,49.9,0.00,North,352,1.0,3.1,88,0.00,,,0.00,WUHU216CR1000,2013-08-02 08:16:00,
2013-08-02 01:21:00,53.1,50.0,0.00,ENE,65,1.2,3.4,89,0.00,,,0.00,WUHU216CR1000,2013-08-02 08:21:00,
2013-08-02 01:26:00,53.1,50.0,0.00,ENE,65,1.2,3.4,89,0.00,,,0.00,WUHU216CR1000,2013-08-02 08:26:00,
2013-08-02 01:31:00,53.1,50.0,0.00,ENE,65,1.2,3.4,89,0.00,,,0.00,WUHU216CR1000,2013-08-02 08:31:00,
2013-08-02 01:36:00,53.4,50.5,0.00,East,79,1.7,3.9,90,0.00,,,0.00,WUHU216CR1000,2013-08-02 08:36:00,
2013-08-02 01:41:00,53.4,50.5,0.00,East,79,1.7,3.9,90,0.00,,,0.00,WUHU216CR1000,2013-08-02 08:41:00,
2013-08-02 01:46:00,53.4,50.5,0.00,East,79,1.7,3.9,90,0.00,,,0.00,WUHU216CR1000,2013-08-02 08:46:00,
2013-08-02 01:51:00,53.1,50.2,0.00,East,97,0.6,3.9,90,0.00,,,0.00,WUHU216CR1000,2013-08-02 08:51:00,
2013-08-02 01:56:00,53.1,50.2,0.00,East,97,0.6,2.2,90,0.00,,,0.00,WUHU216CR1000,2013-08-02 08:56:00,
2013-08-02 02:01:00,53.1,50.2,0.00,East,97,0.6,2.2,90,0.00,,,0.00,WUHU216CR1000,2013-08-02 09:01:00,
2013-08-02 02:06:00,52.2,49.3,0.00,NNW,331,0.4,2.2,90,0.00,,,0.00,WUHU216CR1000,2013-08-02 09:06:00,
2013-08-02 02:11:00,52.2,49.3,0.00,NNW,331,0.4,1.4,90,0.00,,,0.00,WUHU216CR1000,2013-08-02 09:11:00,
2013-08-02 02:16:00,52.2,49.3,0.00,NNW,331,0.4,1.4,90,0.00,,,0.00,WUHU216CR1000,2013-08-02 09:16:00,
2013-08-02 02:21:00,51.2,48.8,0.00,West,281,0.2,1.4,91,0.00,,,0.00,WUHU216CR1000,2013-08-02 09:21:00,
2013-08-02 02:26:00,51.2,48.8,0.00,West,281,0.2,1.4,91,0.00,,,0.00,WUHU216CR1000,2013-08-02 09:26:00,
2013-08-02 02:31:00,51.2,48.8,0.00,West,281,0.2,1.4,91,0.00,,,0.00,WUHU216CR1000,2013-08-02 09:31:00,
2013-08-02 02:36:00,51.0,48.6,0.00,WSW,238,0.2,1.4,92,0.00,,,0.00,WUHU216CR1000,2013-08-02 09:36:00,
2013-08-02 02:41:00,51.0,48.6,0.00,WSW,238,0.2,1.2,92,0.00,,,0.00,WUHU216CR1000,2013-08-02 09:41:00,
2013-08-02 02:46:00,51.0,48.6,0.00,WSW,238,0.2,1.2,92,0.00,,,0.00,WUHU216CR1000,2013-08-02 09:46:00,
2013-08-02 02:51:00,50.6,48.4,0.00,SE,132,0.5,2.0,92,0.00,,,0.00,WUHU216CR1000,2013-08-02 09:51:00,
2013-08-02 02:56:00,50.6,48.4,0.00,SE,132,0.5,2.0,92,0.00,,,0.00,WUHU216CR1000,2013-08-02 09:56:00,
2013-08-02 03:01:00,50.6,48.4,0.00,SE,132,0.5,2.0,92,0.00,,,0.00,WUHU216CR1000,2013-08-02 10:01:00,
2013-08-02 03:06:00,50.5,48.4,0.00,South,189,0.6,2.0,92,0.00,,,0.00,WUHU216CR1000,2013-08-02 10:06:00,
2013-08-02 03:11:00,50.5,48.4,0.00,South,189,0.6,1.8,92,0.00,,,0.00,WUHU216CR1000,2013-08-02 10:11:00,
2013-08-02 03:16:00,50.5,48.4,0.00,South,189,0.6,1.8,92,0.00,,,0.00,WUHU216CR1000,2013-08-02 10:16:00,
2013-08-02 03:21:00,50.5,48.4,0.00,South,189,0.6,1.8,92,0.00,,,0.00,WUHU216CR1000,2013-08-02 10:21:00,
2013-08-02 03:26:00,50.5,48.4,0.00,South,189,0.6,1.8,92,0.00,,,0.00,WUHU216CR1000,2013-08-02 10:26:00,
2013-08-02 03:36:00,50.5,48.4,0.00,South,189,0.6,1.8,92,0.00,,,0.00,WUHU216CR1000,2013-08-02 10:36:00,
2013-08-02 03:41:00,50.5,48.4,0.00,South,189,0.6,1.8,92,0.00,,,0.00,WUHU216CR1000,2013-08-02 10:41:00,
2013-08-02 03:46:00,50.5,48.4,0.00,South,189,0.6,1.8,92,0.00,,,0.00,WUHU216CR1000,2013-08-02 10:46:00,
2013-08-02 03:51:00,50.5,48.4,0.00,South,189,0.6,1.8,92,0.00,,,0.00,WUHU216CR1000,2013-08-02 10:51:00,
2013-08-02 04:05:00,50.5,48.4,0.00,South,189,0.6,1.8,92,0.00,,,0.00,WUHU216CR1000,2013-08-02 11:05:00,
2013-08-02 04:10:00,49.2,47.4,0.00,WSW,237,1.2,2.2,94,0.00,,,0.00,WUHU216CR1000,2013-08-02 11:10:00,
2013-08-02 04:15:00,49.2,47.4,0.00,WSW,237,1.2,2.2,94,0.00,,,0.00,WUHU216CR1000,2013-08-02 11:15:00,
2013-08-02 04:20:00,49.0,47.6,0.00,WSW,237,1.1,2.2,95,0.00,,,0.00,WUHU216CR1000,2013-08-02 11:20:00,
2013-08-02 04:25:00,49.0,47.6,0.00,WSW,237,1.1,2.2,95,0.00,,,0.00,WUHU216CR1000,2013-08-02 11:25:00,
2013-08-02 04:30:00,49.0,47.6,0.00,WSW,237,1.1,2.2,95,0.00,,,0.00,WUHU216CR1000,2013-08-02 11:30:00,
2013-08-02 04:35:00,49.0,47.6,0.00,WSW,249,0.4,2.2,95,0.00,,,0.00,WUHU216CR1000,2013-08-02 11:35:00,
2013-08-02 04:40:00,49.0,47.6,0.00,WSW,249,0.4,1.5,95,0.00,,,0.00,WUHU216CR1000,2013-08-02 11:40:00,
2013-08-02 04:45:00,49.0,47.6,0.00,WSW,249,0.4,1.5,95,0.00,,,0.00,WUHU216CR1000,2013-08-02 11:45:00,
2013-08-02 04:50:00,48.4,46.9,0.00,SSW,213,0.4,1.9,94,0.00,,,0.00,WUHU216CR1000,2013-08-02 11:50:00,
2013-08-02 04:55:00,48.4,46.9,0.00,SSW,213,0.4,1.9,94,0.00,,,0.00,WUHU216CR1000,2013-08-02 11:55:00,
2013-08-02 05:00:00,48.4,46.9,0.00,SSW,213,0.4,1.9,94,0.00,,,0.00,WUHU216CR1000,2013-08-02 12:00:00,
2013-08-02 05:05:00,48.1,46.5,0.00,NW,313,0.7,2.0,94,0.00,,,0.00,WUHU216CR1000,2013-08-02 12:05:00,
2013-08-02 05:10:00,48.1,46.5,0.00,NW,313,0.7,2.0,94,0.00,,,0.00,WUHU216CR1000,2013-08-02 12:10:00,
2013-08-02 05:15:00,48.1,46.5,0.00,NW,313,0.7,2.0,94,0.00,,,0.00,WUHU216CR1000,2013-08-02 12:15:00,
2013-08-02 05:20:00,47.5,46.0,0.00,SW,215,0.4,2.0,95,0.00,,,0.00,WUHU216CR1000,2013-08-02 12:20:00,
2013-08-02 05:25:00,47.5,46.0,0.00,SW,215,0.4,1.4,95,0.00,,,0.00,WUHU216CR1000,2013-08-02 12:25:00,
2013-08-02 05:30:00,47.5,46.0,0.00,SW,215,0.4,1.4,95,0.00,,,0.00,WUHU216CR1000,2013-08-02 12:30:00,
2013-08-02 05:35:00,47.7,46.2,0.00,WSW,247,0.1,1.4,94,0.00,,,0.00,WUHU216CR1000,2013-08-02 12:35:00,
2013-08-02 05:40:00,47.7,46.2,0.00,WSW,247,0.1,1.0,94,0.00,,,0.00,WUHU216CR1000,2013-08-02 12:40:00,
2013-08-02 05:45:00,47.7,46.2,0.00,WSW,247,0.1,1.0,94,0.00,,,0.00,WUHU216CR1000,2013-08-02 12:45:00,
2013-08-02 05:50:00,47.2,45.0,0.00,SSW,212,0.1,1.0,92,0.00,,,0.00,WUHU216CR1000,2013-08-02 12:50:00,
2013-08-02 05:55:00,47.2,45.0,0.00,SSW,212,0.1,1.0,92,0.00,,,0.00,WUHU216CR1000,2013-08-02 12:55:00,
2013-08-02 06:00:00,47.2,45.0,0.00,SSW,212,0.1,1.0,92,0.00,,,0.00,WUHU216CR1000,2013-08-02 13:00:00,
2013-08-02 06:05:00,47.3,45.5,0.00,SW,217,0.3,1.4,93,0.00,,,0.00,WUHU216CR1000,2013-08-02 13:05:00,
2013-08-02 06:10:00,47.3,45.5,0.00,SW,217,0.3,1.4,93,0.00,,,0.00,WUHU216CR1000,2013-08-02 13:10:00,
2013-08-02 06:15:00,47.3,45.5,0.00,SW,217,0.3,1.4,93,0.00,,,0.00,WUHU216CR1000,2013-08-02 13:15:00,
2013-08-02 06:16:00,47.3,45.5,0.00,SW,217,0.3,1.4,93,0.00,,,0.00,WUHU216CR1000,2013-08-02 13:16:00,
2013-08-02 06:21:00,47.0,45.0,0.00,SSW,193,0.0,1.4,93,0.00,,,0.00,WUHU216CR1000,2013-08-02 13:21:00,
2013-08-02 06:26:00,47.0,45.0,0.00,SSW,193,0.0,1.0,93,0.00,,,0.00,WUHU216CR1000,2013-08-02 13:26:00,
2013-08-02 06:31:00,47.0,45.0,0.00,SSW,193,0.0,1.0,93,0.00,,,0.00,WUHU216CR1000,2013-08-02 13:31:00,
2013-08-02 06:36:00,46.8,44.9,0.00,SSW,200,0.4,1.3,93,0.00,,,0.00,WUHU216CR1000,2013-08-02 13:36:00,
2013-08-02 06:41:00,46.8,44.9,0.00,SSW,200,0.4,1.3,93,0.00,,,0.00,WUHU216CR1000,2013-08-02 13:41:00,
2013-08-02 06:46:00,46.8,44.9,0.00,SSW,200,0.4,1.3,93,0.00,,,0.00,WUHU216CR1000,2013-08-02 13:46:00,
2013-08-02 06:51:00,47.8,46.3,0.00,SSW,211,0.7,2.0,95,0.00,,,0.00,WUHU216CR1000,2013-08-02 13:51:00,
2013-08-02 06:56:00,47.8,46.3,0.00,SSW,211,0.7,2.0,95,0.00,,,0.00,WUHU216CR1000,2013-08-02 13:56:00,
2013-08-02 07:01:00,47.8,46.3,0.00,SSW,211,0.7,2.0,95,0.00,,,0.00,WUHU216CR1000,2013-08-02 14:01:00,
2013-08-02 07:06:00,48.8,47.5,0.00,North,355,0.0,2.0,95,0.00,,,0.00,WUHU216CR1000,2013-08-02 14:06:00,
2013-08-02 07:11:00,48.8,47.5,0.00,North,355,0.0,1.0,95,0.00,,,0.00,WUHU216CR1000,2013-08-02 14:11:00,
2013-08-02 07:16:00,48.8,47.5,0.00,North,355,0.0,1.0,95,0.00,,,0.00,WUHU216CR1000,2013-08-02 14:16:00,
2013-08-02 07:21:00,51.0,48.6,0.00,East,93,0.1,1.3,91,0.00,,,0.00,WUHU216CR1000,2013-08-02 14:21:00,
2013-08-02 07:26:00,51.0,48.6,0.00,East,93,0.1,1.3,91,0.00,,,0.00,WUHU216CR1000,2013-08-02 14:26:00,
2013-08-02 07:31:00,51.0,48.6,0.00,East,93,0.1,1.3,91,0.00,,,0.00,WUHU216CR1000,2013-08-02 14:31:00,
2013-08-02 07:36:00,52.9,48.8,0.00,ENE,71,0.9,2.0,86,0.00,,,0.00,WUHU216CR1000,2013-08-02 14:36:00,
2013-08-02 07:41:00,52.9,48.8,0.00,ENE,71,0.9,2.0,86,0.00,,,0.00,WUHU216CR1000,2013-08-02 14:41:00,
2013-08-02 07:46:00,52.9,48.8,0.00,ENE,71,0.9,2.0,86,0.00,,,0.00,WUHU216CR1000,2013-08-02 14:46:00,
2013-08-02 07:51:00,53.1,49.0,0.00,East,81,1.4,3.4,86,0.00,,,0.00,WUHU216CR1000,2013-08-02 14:51:00,
2013-08-02 07:56:00,53.1,49.0,0.00,East,81,1.4,3.4,86,0.00,,,0.00,WUHU216CR1000,2013-08-02 14:56:00,
2013-08-02 08:01:00,53.1,49.0,0.00,East,81,1.4,3.4,86,0.00,,,0.00,WUHU216CR1000,2013-08-02 15:01:00,
2013-08-02 08:06:00,54.6,50.0,0.00,SE,136,0.8,3.4,84,0.00,,,0.00,WUHU216CR1000,2013-08-02 15:06:00,
2013-08-02 08:11:00,54.6,50.0,0.00,SE,136,0.8,2.4,84,0.00,,,0.00,WUHU216CR1000,2013-08-02 15:11:00,
2013-08-02 08:16:00,54.6,50.0,0.00,SE,136,0.8,2.4,84,0.00,,,0.00,WUHU216CR1000,2013-08-02 15:16:00,
2013-08-02 08:21:00,56.5,50.1,0.00,East,93,0.8,2.5,79,0.00,,,0.00,WUHU216CR1000,2013-08-02 15:21:00,
2013-08-02 08:26:00,56.5,50.1,0.00,East,93,0.8,2.5,79,0.00,,,0.00,WUHU216CR1000,2013-08-02 15:26:00,
2013-08-02 08:31:00,56.5,50.1,0.00,East,93,0.8,2.5,79,0.00,,,0.00,WUHU216CR1000,2013-08-02 15:31:00,
2013-08-02 08:36:00,58.0,50.4,0.00,SSW,195,0.7,2.5,76,0.00,,,0.00,WUHU216CR1000,2013-08-02 15:36:00,
2013-08-02 08:41:00,58.0,50.4,0.00,SSW,195,0.7,2.2,76,0.00,,,0.00,WUHU216CR1000,2013-08-02 15:41:00,
2013-08-02 08:46:00,58.0,50.4,0.00,SSW,195,0.7,2.2,76,0.00,,,0.00,WUHU216CR1000,2013-08-02 15:46:00,
2013-08-02 08:51:00,59.6,50.7,0.00,SE,136,0.7,3.0,72,0.00,,,0.00,WUHU216CR1000,2013-08-02 15:51:00,
2013-08-02 08:56:00,59.6,50.7,0.00,SE,136,0.7,3.0,72,0.00,,,0.00,WUHU216CR1000,2013-08-02 15:56:00,
2013-08-02 09:01:00,59.6,50.7,0.00,SE,136,0.7,3.0,72,0.00,,,0.00,WUHU216CR1000,2013-08-02 16:01:00,
2013-08-02 09:06:00,60.0,50.9,0.00,SSW,207,1.5,3.7,72,0.00,,,0.00,WUHU216CR1000,2013-08-02 16:06:00,
2013-08-02 09:11:00,60.0,50.9,0.00,SSW,207,1.5,3.7,72,0.00,,,0.00,WUHU216CR1000,2013-08-02 16:11:00,
2013-08-02 09:16:00,60.0,50.9,0.00,SSW,207,1.5,3.7,72,0.00,,,0.00,WUHU216CR1000,2013-08-02 16:16:00,
2013-08-02 09:21:00,61.7,51.1,0.00,SSE,156,1.2,3.7,68,0.00,,,0.00,WUHU216CR1000,2013-08-02 16:21:00,
2013-08-02 09:26:00,61.7,51.1,0.00,SSE,156,1.2,3.4,68,0.00,,,0.00,WUHU216CR1000,2013-08-02 16:26:00,
2013-08-02 09:31:00,61.7,51.1,0.00,SSE,156,1.2,3.4,68,0.00,,,0.00,WUHU216CR1000,2013-08-02 16:31:00,
2013-08-02 09:36:00,63.3,51.6,0.00,South,174,1.9,3.5,66,0.00,,,0.00,WUHU216CR1000,2013-08-02 16:36:00,
2013-08-02 09:41:00,63.3,51.6,0.00,South,174,1.9,3.5,66,0.00,,,0.00,WUHU216CR1000,2013-08-02 16:41:00,
2013-08-02 09:46:00,63.3,51.6,0.00,South,174,1.9,3.5,66,0.00,,,0.00,WUHU216CR1000,2013-08-02 16:46:00,
2013-08-02 09:51:00,64.6,52.0,0.00,South,186,1.5,5.0,64,0.00,,,0.00,WUHU216CR1000,2013-08-02 16:51:00,
2013-08-02 09:56:00,64.6,52.0,0.00,South,186,1.5,5.0,64,0.00,,,0.00,WUHU216CR1000,2013-08-02 16:56:00,
2013-08-02 10:01:00,64.6,52.0,0.00,South,186,1.5,5.0,64,0.00,,,0.00,WUHU216CR1000,2013-08-02 17:01:00,
2013-08-02 10:06:00,66.2,52.0,0.00,SSW,198,1.7,5.0,60,0.00,,,0.00,WUHU216CR1000,2013-08-02 17:06:00,
2013-08-02 10:11:00,66.2,52.0,0.00,SSW,198,1.7,4.5,60,0.00,,,0.00,WUHU216CR1000,2013-08-02 17:11:00,
2013-08-02 10:16:00,66.2,52.0,0.00,SSW,198,1.7,4.5,60,0.00,,,0.00,WUHU216CR1000,2013-08-02 17:16:00,
2013-08-02 10:21:00,67.8,51.7,0.00,WNW,296,1.4,4.6,56,0.00,,,0.00,WUHU216CR1000,2013-08-02 17:21:00,
2013-08-02 10:26:00,67.8,51.7,0.00,WNW,296,1.4,4.6,56,0.00,,,0.00,WUHU216CR1000,2013-08-02 17:26:00,
2013-08-02 10:31:00,67.8,51.7,0.00,WNW,296,1.4,4.6,56,0.00,,,0.00,WUHU216CR1000,2013-08-02 17:31:00,
2013-08-02 10:36:00,68.9,51.5,0.00,SW,227,1.6,4.6,54,0.00,,,0.00,WUHU216CR1000,2013-08-02 17:36:00,
2013-08-02 10:41:00,68.9,51.5,0.00,SW,227,1.6,4.3,54,0.00,,,0.00,WUHU216CR1000,2013-08-02 17:41:00,
2013-08-02 10:46:00,68.9,51.5,0.00,SW,227,1.6,4.3,54,0.00,,,0.00,WUHU216CR1000,2013-08-02 17:46:00,
2013-08-02 10:51:00,70.4,51.5,0.00,NNW,341,0.6,4.3,51,0.00,,,0.00,WUHU216CR1000,2013-08-02 17:51:00,
2013-08-02 10:56:00,70.4,51.5,0.00,NNW,341,0.6,3.5,51,0.00,,,0.00,WUHU216CR1000,2013-08-02 17:56:00,
2013-08-02 11:01:00,70.4,51.5,0.00,NNW,341,0.6,3.5,51,0.00,,,0.00,WUHU216CR1000,2013-08-02 18:01:00,
2013-08-02 11:06:00,72.7,52.6,0.00,ESE,120,1.3,4.8,49,0.00,,,0.00,WUHU216CR1000,2013-08-02 18:06:00,
2013-08-02 11:11:00,72.7,52.6,0.00,ESE,120,1.3,4.8,49,0.00,,,0.00,WUHU216CR1000,2013-08-02 18:11:00,
2013-08-02 11:16:00,72.7,52.6,0.00,ESE,120,1.3,4.8,49,0.00,,,0.00,WUHU216CR1000,2013-08-02 18:16:00,
2013-08-02 11:21:00,73.7,53.0,0.00,SE,146,1.9,5.0,48,0.00,,,0.00,WUHU216CR1000,2013-08-02 18:21:00,
2013-08-02 11:26:00,73.7,53.0,0.00,SE,146,1.9,5.0,48,0.00,,,0.00,WUHU216CR1000,2013-08-02 18:26:00,
2013-08-02 11:31:00,73.7,53.0,0.00,SE,146,1.9,5.0,48,0.00,,,0.00,WUHU216CR1000,2013-08-02 18:31:00,
2013-08-02 11:36:00,74.0,54.0,0.00,SSE,150,2.8,7.8,50,0.00,,,0.00,WUHU216CR1000,2013-08-02 18:36:00,
2013-08-02 11:41:00,74.0,54.0,0.00,SSE,150,2.8,7.8,50,0.00,,,0.00,WUHU216CR1000,2013-08-02 18:41:00,
2013-08-02 11:46:00,75.5,54.0,0.00,SSW,200,2.4,7.8,47,0.00,,,0.00,WUHU216CR1000,2013-08-02 18:46:00,
2013-08-02 11:51:00,75.5,54.0,0.00,SSW,200,2.4,7.8,47,0.00,,,0.00,WUHU216CR1000,2013-08-02 18:51:00,
2013-08-02 11:56:00,75.5,54.0,0.00,SSW,200,2.4,7.3,47,0.00,,,0.00,WUHU216CR1000,2013-08-02 18:56:00,
2013-08-02 12:01:00,75.5,54.0,0.00,SSW,200,2.4,7.3,47,0.00,,,0.00,WUHU216CR1000,2013-08-02 19:01:00,
2013-08-02 12:06:00,76.5,54.4,0.00,South,183,2.4,8.0,46,0.00,,,0.00,WUHU216CR1000,2013-08-02 19:06:00,
2013-08-02 12:11:00,76.5,54.4,0.00,South,183,2.4,8.0,46,0.00,,,0.00,WUHU216CR1000,2013-08-02 19:11:00,
2013-08-02 12:16:00,77.7,54.6,0.00,South,187,2.8,8.0,45,0.00,,,0.00,WUHU216CR1000,2013-08-02 19:16:00,
2013-08-02 12:21:00,77.7,54.6,0.00,South,187,2.8,8.0,45,0.00,,,0.00,WUHU216CR1000,2013-08-02 19:21:00,
2013-08-02 12:26:00,77.7,54.6,0.00,South,187,2.8,8.0,45,0.00,,,0.00,WUHU216CR1000,2013-08-02 19:26:00,
2013-08-02 12:31:00,79.3,54.9,0.00,South,181,2.8,8.0,43,0.00,,,0.00,WUHU216CR1000,2013-08-02 19:31:00,
2013-08-02 12:36:00,79.3,54.9,0.00,South,181,2.8,6.7,43,0.00,,,0.00,WUHU216CR1000,2013-08-02 19:36:00,
2013-08-02 12:41:00,79.3,54.9,0.00,South,181,2.8,6.7,43,0.00,,,0.00,WUHU216CR1000,2013-08-02 19:41:00,
2013-08-02 12:46:00,80.3,54.4,0.00,SSE,160,2.9,6.7,41,0.00,,,0.00,WUHU216CR1000,2013-08-02 19:46:00,
2013-08-02 12:51:00,80.3,54.4,0.00,SSE,160,2.9,6.7,41,0.00,,,0.00,WUHU216CR1000,2013-08-02 19:51:00,
2013-08-02 12:56:00,80.3,54.4,0.00,SSE,160,2.9,6.5,41,0.00,,,0.00,WUHU216CR1000,2013-08-02 19:56:00,
2013-08-02 13:01:00,80.3,54.4,0.00,SSE,160,2.9,6.5,41,0.00,,,0.00,WUHU216CR1000,2013-08-02 20:01:00,
2013-08-02 13:06:00,81.1,53.5,0.00,SSW,195,3.3,7.2,39,0.00,,,0.00,WUHU216CR1000,2013-08-02 20:06:00,
2013-08-02 13:11:00,81.1,53.5,0.00,SSW,195,3.3,7.2,39,0.00,,,0.00,WUHU216CR1000,2013-08-02 20:11:00,
2013-08-02 13:16:00,81.1,53.5,0.00,SSW,195,3.3,7.2,39,0.00,,,0.00,WUHU216CR1000,2013-08-02 20:16:00,
2013-08-02 13:21:00,82.0,54.1,0.00,South,178,3.5,8.7,38,0.00,,,0.00,WUHU216CR1000,2013-08-02 20:21:00,
2013-08-02 13:26:00,82.0,54.1,0.00,South,178,3.5,8.7,38,0.00,,,0.00,WUHU216CR1000,2013-08-02 20:26:00,
2013-08-02 13:31:00,82.0,54.1,0.00,South,178,3.5,8.7,38,0.00,,,0.00,WUHU216CR1000,2013-08-02 20:31:00,
2013-08-02 13:36:00,82.6,55.1,0.00,SSE,168,4.0,9.2,39,0.00,,,0.00,WUHU216CR1000,2013-08-02 20:36:00,
2013-08-02 13:41:00,82.6,55.1,0.00,SSE,168,4.0,9.2,39,0.00,,,0.00,WUHU216CR1000,2013-08-02 20:41:00,
2013-08-02 13:46:00,82.6,55.1,0.00,SSE,168,4.0,9.2,39,0.00,,,0.00,WUHU216CR1000,2013-08-02 20:46:00,
2013-08-02 13:51:00,82.0,53.8,0.00,South,171,4.6,9.4,38,0.00,,,0.00,WUHU216CR1000,2013-08-02 20:51:00,
2013-08-02 13:56:00,82.0,53.8,0.00,South,171,4.6,9.4,38,0.00,,,0.00,WUHU216CR1000,2013-08-02 20:56:00,
2013-08-02 14:01:00,82.0,53.8,0.00,South,171,4.6,9.4,38,0.00,,,0.00,WUHU216CR1000,2013-08-02 21:01:00,
2013-08-02 14:06:00,82.4,52.3,0.00,SSE,167,4.6,10.9,35,0.00,,,0.00,WUHU216CR1000,2013-08-02 21:06:00,
2013-08-02 14:11:00,82.4,52.3,0.00,SSE,167,4.6,10.9,35,0.00,,,0.00,WUHU216CR1000,2013-08-02 21:11:00,
2013-08-02 14:16:00,82.8,51.6,0.00,SSE,162,5.5,12.4,34,0.00,,,0.00,WUHU216CR1000,2013-08-02 21:16:00,
2013-08-02 14:21:00,82.8,51.6,0.00,SSE,162,5.5,12.4,34,0.00,,,0.00,WUHU216CR1000,2013-08-02 21:21:00,
2013-08-02 14:26:00,82.8,51.6,0.00,SSE,162,5.5,12.4,34,0.00,,,0.00,WUHU216CR1000,2013-08-02 21:26:00,
2013-08-02 14:31:00,82.8,51.6,0.00,SSE,162,5.5,12.4,34,0.00,,,0.00,WUHU216CR1000,2013-08-02 21:31:00,
2013-08-02 14:36:00,83.5,52.1,0.00,South,170,5.1,11.1,34,0.00,,,0.00,WUHU216CR1000,2013-08-02 21:36:00,
2013-08-02 14:41:00,83.5,52.1,0.00,South,170,5.1,11.1,34,0.00,,,0.00,WUHU216CR1000,2013-08-02 21:41:00,
2013-08-02 14:46:00,83.3,51.5,0.00,SSE,165,5.3,12.3,33,0.00,,,0.00,WUHU216CR1000,2013-08-02 21:46:00,
2013-08-02 14:51:00,83.3,51.5,0.00,SSE,165,5.3,12.3,33,0.00,,,0.00,WUHU216CR1000,2013-08-02 21:51:00,
2013-08-02 14:56:00,83.3,51.5,0.00,SSE,165,5.3,12.3,33,0.00,,,0.00,WUHU216CR1000,2013-08-02 21:56:00,
2013-08-02 15:01:00,83.8,51.6,0.00,SSE,166,5.7,12.9,33,0.00,,,0.00,WUHU216CR1000,2013-08-02 22:01:00,
2013-08-02 15:06:00,83.8,51.6,0.00,SSE,166,5.7,12.9,33,0.00,,,0.00,WUHU216CR1000,2013-08-02 22:06:00,
2013-08-02 15:11:00,83.8,51.6,0.00,SSE,166,5.7,12.9,33,0.00,,,0.00,WUHU216CR1000,2013-08-02 22:11:00,
2013-08-02 15:16:00,84.4,51.4,0.00,South,188,5.4,12.9,32,0.00,,,0.00,WUHU216CR1000,2013-08-02 22:16:00,
2013-08-02 15:21:00,84.4,51.4,0.00,South,188,5.4,11.6,32,0.00,,,0.00,WUHU216CR1000,2013-08-02 22:21:00,
2013-08-02 15:26:00,84.4,51.4,0.00,South,188,5.4,11.6,32,0.00,,,0.00,WUHU216CR1000,2013-08-02 22:26:00,
2013-08-02 15:31:00,84.6,50.5,0.00,South,174,5.3,11.6,31,0.00,,,0.00,WUHU216CR1000,2013-08-02 22:31:00,
2013-08-02 15:36:00,84.6,50.5,0.00,South,174,5.3,10.2,31,0.00,,,0.00,WUHU216CR1000,2013-08-02 22:36:00,
2013-08-02 15:41:00,84.6,50.5,0.00,South,174,5.3,10.2,31,0.00,,,0.00,WUHU216CR1000,2013-08-02 22:41:00,
2013-08-02 15:46:00,84.5,50.9,0.00,SSE,161,5.4,11.0,31,0.00,,,0.00,WUHU216CR1000,2013-08-02 22:46:00,
2013-08-02 15:51:00,84.5,50.9,0.00,SSE,161,5.4,11.0,31,0.00,,,0.00,WUHU216CR1000,2013-08-02 22:51:00,
2013-08-02 15:56:00,84.5,50.9,0.00,SSE,161,5.4,11.0,31,0.00,,,0.00,WUHU216CR1000,2013-08-02 22:56:00,
2013-08-02 16:01:00,84.5,50.7,0.00,SSE,168,5.5,11.8,31,0.00,,,0.00,WUHU216CR1000,2013-08-02 23:01:00,
2013-08-02 16:06:00,84.5,50.7,0.00,SSE,168,5.5,11.8,31,0.00,,,0.00,WUHU216CR1000,2013-08-02 23:06:00,
2013-08-02 16:11:00,84.5,50.7,0.00,SSE,168,5.5,11.8,31,0.00,,,0.00,WUHU216CR1000,2013-08-02 23:11:00,
2013-08-02 16:16:00,85.1,50.8,0.00,South,187,4.8,11.8,31,0.00,,,0.00,WUHU216CR1000,2013-08-02 23:16:00,
2013-08-02 16:21:00,85.1,50.8,0.00,South,187,4.8,10.3,31,0.00,,,0.00,WUHU216CR1000,2013-08-02 23:21:00,
2013-08-02 16:26:00,85.1,50.8,0.00,South,187,4.8,10.3,31,0.00,,,0.00,WUHU216CR1000,2013-08-02 23:26:00,
2013-08-02 16:31:00,84.9,49.5,0.00,South,191,6.0,11.5,29,0.00,,,0.00,WUHU216CR1000,2013-08-02 23:31:00,
2013-08-02 16:36:00,84.9,49.5,0.00,South,191,6.0,11.5,29,0.00,,,0.00,WUHU216CR1000,2013-08-02 23:36:00,
2013-08-02 16:41:00,84.9,49.5,0.00,South,191,6.0,11.5,29,0.00,,,0.00,WUHU216CR1000,2013-08-02 23:41:00,
2013-08-02 16:46:00,84.9,49.4,0.00,South,178,4.8,11.5,29,0.00,,,0.00,WUHU216CR1000,2013-08-02 23:46:00,
2013-08-02 16:51:00,84.9,49.4,0.00,South,178,4.8,10.1,29,0.00,,,0.00,WUHU216CR1000,2013-08-02 23:51:00,
2013-08-02 16:56:00,84.9,49.4,0.00,South,178,4.8,10.1,29,0.00,,,0.00,WUHU216CR1000,2013-08-02 23:56:00,
2013-08-02 17:01:00,85.2,48.8,0.00,South,176,4.3,10.6,28,0.00,,,0.00,WUHU216CR1000,2013-08-03 00:01:00,
2013-08-02 17:06:00,85.2,48.8,0.00,South,176,4.3,10.6,28,0.00,,,0.00,WUHU216CR1000,2013-08-03 00:06:00,
2013-08-02 17:11:00,85.2,48.8,0.00,South,176,4.3,10.6,28,0.00,,,0.00,WUHU216CR1000,2013-08-03 00:11:00,
2013-08-02 17:16:00,85.7,49.9,0.00,South,190,3.8,10.6,29,0.00,,,0.00,WUHU216CR1000,2013-08-03 00:16:00,
2013-08-02 17:21:00,85.7,49.9,0.00,South,190,3.8,7.7,29,0.00,,,0.00,WUHU216CR1000,2013-08-03 00:21:00,
2013-08-02 17:26:00,85.7,49.9,0.00,South,190,3.8,7.7,29,0.00,,,0.00,WUHU216CR1000,2013-08-03 00:26:00,
2013-08-02 17:31:00,85.8,50.4,0.00,SW,231,3.5,7.7,30,0.00,,,0.00,WUHU216CR1000,2013-08-03 00:31:00,
2013-08-02 17:36:00,85.8,50.4,0.00,SW,231,3.5,7.7,30,0.00,,,0.00,WUHU216CR1000,2013-08-03 00:36:00,
2013-08-02 17:41:00,85.8,50.4,0.00,SW,231,3.5,7.6,30,0.00,,,0.00,WUHU216CR1000,2013-08-03 00:41:00,
2013-08-02 17:46:00,85.5,49.5,0.00,SSW,212,3.0,7.6,29,0.00,,,0.00,WUHU216CR1000,2013-08-03 00:46:00,
2013-08-02 17:51:00,85.5,49.5,0.00,SSW,212,3.0,6.5,29,0.00,,,0.00,WUHU216CR1000,2013-08-03 00:51:00,
2013-08-02 17:56:00,85.5,49.5,0.00,SSW,212,3.0,6.5,29,0.00,,,0.00,WUHU216CR1000,2013-08-03 00:56:00,
2013-08-02 18:01:00,85.5,49.4,0.00,South,169,2.4,7.8,29,0.00,,,0.00,WUHU216CR1000,2013-08-03 01:01:00,
2013-08-02 18:06:00,85.5,49.4,0.00,South,169,2.4,7.8,29,0.00,,,0.00,WUHU216CR1000,2013-08-03 01:06:00,
2013-08-02 18:11:00,85.5,49.4,0.00,South,169,2.4,7.8,29,0.00,,,0.00,WUHU216CR1000,2013-08-03 01:11:00,
2013-08-02 18:16:00,83.1,51.9,0.00,ESE,122,3.0,9.3,34,0.00,,,0.00,WUHU216CR1000,2013-08-03 01:16:00,
2013-08-02 18:21:00,83.1,51.9,0.00,ESE,122,3.0,9.3,34,0.00,,,0.00,WUHU216CR1000,2013-08-03 01:21:00,
2013-08-02 18:26:00,83.1,51.9,0.00,ESE,122,3.0,9.3,34,0.00,,,0.00,WUHU216CR1000,2013-08-03 01:26:00,
2013-08-02 18:31:00,79.2,54.7,0.00,ESE,107,4.9,9.3,43,0.00,,,0.00,WUHU216CR1000,2013-08-03 01:31:00,
2013-08-02 18:36:00,79.2,54.7,0.00,ESE,107,4.9,9.1,43,0.00,,,0.00,WUHU216CR1000,2013-08-03 01:36:00,
2013-08-02 18:41:00,79.2,54.7,0.00,ESE,107,4.9,9.1,43,0.00,,,0.00,WUHU216CR1000,2013-08-03 01:41:00,
2013-08-02 18:46:00,76.2,54.6,0.00,East,89,5.5,10.4,47,0.00,,,0.00,WUHU216CR1000,2013-08-03 01:46:00,
2013-08-02 18:51:00,76.2,54.6,0.00,East,89,5.5,10.4,47,0.00,,,0.00,WUHU216CR1000,2013-08-03 01:51:00,
2013-08-02 18:56:00,76.2,54.6,0.00,East,89,5.5,10.4,47,0.00,,,0.00,WUHU216CR1000,2013-08-03 01:56:00,
2013-08-02 19:01:00,76.2,54.6,0.00,East,89,5.5,10.4,47,0.00,,,0.00,WUHU216CR1000,2013-08-03 02:01:00,
2013-08-02 19:06:00,73.4,53.9,0.00,East,100,6.1,11.2,50,0.00,,,0.00,WUHU216CR1000,2013-08-03 02:06:00,
2013-08-02 19:11:00,73.4,53.9,0.00,East,100,6.1,11.2,50,0.00,,,0.00,WUHU216CR1000,2013-08-03 02:11:00,
2013-08-02 19:16:00,71.5,52.8,0.00,ESE,119,5.9,11.2,52,0.00,,,0.00,WUHU216CR1000,2013-08-03 02:16:00,
2013-08-02 19:21:00,71.5,52.8,0.00,ESE,119,5.9,11.2,52,0.00,,,0.00,WUHU216CR1000,2013-08-03 02:21:00,
2013-08-02 19:26:00,71.5,52.8,0.00,ESE,119,5.9,11.2,52,0.00,,,0.00,WUHU216CR1000,2013-08-03 02:26:00,
2013-08-02 19:31:00,70.2,52.5,0.00,ESE,110,4.3,11.2,53,0.00,,,0.00,WUHU216CR1000,2013-08-03 02:31:00,
2013-08-02 19:36:00,70.2,52.5,0.00,ESE,110,4.3,10.0,53,0.00,,,0.00,WUHU216CR1000,2013-08-03 02:36:00,
2013-08-02 19:41:00,70.2,52.5,0.00,ESE,110,4.3,10.0,53,0.00,,,0.00,WUHU216CR1000,2013-08-03 02:41:00,
2013-08-02 19:46:00,68.5,52.5,0.00,ESE,114,3.2,10.0,57,0.00,,,0.00,WUHU216CR1000,2013-08-03 02:46:00,
2013-08-02 19:51:00,68.5,52.5,0.00,ESE,114,3.2,10.0,57,0.00,,,0.00,WUHU216CR1000,2013-08-03 02:51:00,
2013-08-02 19:56:00,68.5,52.5,0.00,ESE,114,3.2,6.9,57,0.00,,,0.00,WUHU216CR1000,2013-08-03 02:56:00,
2013-08-02 20:01:00,68.5,52.5,0.00,ESE,114,3.2,6.9,57,0.00,,,0.00,WUHU216CR1000,2013-08-03 03:01:00,
2013-08-02 20:06:00,67.3,52.6,0.00,East,94,2.7,6.9,59,0.00,,,0.00,WUHU216CR1000,2013-08-03 03:06:00,
2013-08-02 20:11:00,67.3,52.6,0.00,East,94,2.7,5.6,59,0.00,,,0.00,WUHU216CR1000,2013-08-03 03:11:00,
2013-08-02 20:16:00,67.3,52.6,0.00,East,94,2.7,5.6,59,0.00,,,0.00,WUHU216CR1000,2013-08-03 03:16:00,
2013-08-02 20:21:00,65.6,52.2,0.00,East,101,3.3,6.9,62,0.00,,,0.00,WUHU216CR1000,2013-08-03 03:21:00,
2013-08-02 20:26:00,65.6,52.2,0.00,East,101,3.3,6.9,62,0.00,,,0.00,WUHU216CR1000,2013-08-03 03:26:00,
2013-08-02 20:31:00,65.6,52.2,0.00,East,101,3.3,6.9,62,0.00,,,0.00,WUHU216CR1000,2013-08-03 03:31:00,
2013-08-02 20:36:00,64.3,52.1,0.00,ESE,103,2.5,6.9,65,0.00,,,0.00,WUHU216CR1000,2013-08-03 03:36:00,
2013-08-02 20:41:00,64.3,52.1,0.00,ESE,103,2.5,4.9,65,0.00,,,0.00,WUHU216CR1000,2013-08-03 03:41:00,
2013-08-02 20:46:00,64.3,52.1,0.00,ESE,103,2.5,4.9,65,0.00,,,0.00,WUHU216CR1000,2013-08-03 03:46:00,
2013-08-02 20:51:00,63.3,52.0,0.00,East,92,2.6,5.6,67,0.00,,,0.00,WUHU216CR1000,2013-08-03 03:51:00,
2013-08-02 20:56:00,63.3,52.0,0.00,East,92,2.6,5.6,67,0.00,,,0.00,WUHU216CR1000,2013-08-03 03:56:00,
2013-08-02 21:01:00,63.3,52.0,0.00,East,92,2.6,5.6,67,0.00,,,0.00,WUHU216CR1000,2013-08-03 04:01:00,
2013-08-02 21:02:00,62.4,51.8,0.00,East,100,2.9,5.6,68,0.00,,,0.00,WUHU216CR1000,2013-08-03 04:02:00,
2013-08-02 21:07:00,62.4,51.8,0.00,East,100,2.9,5.4,68,0.00,,,0.00,WUHU216CR1000,2013-08-03 04:07:00,
2013-08-02 21:12:00,62.4,51.8,0.00,East,100,2.9,5.4,68,0.00,,,0.00,WUHU216CR1000,2013-08-03 04:12:00,
2013-08-02 21:17:00,61.5,51.6,0.00,East,91,3.0,5.9,70,0.00,,,0.00,WUHU216CR1000,2013-08-03 04:17:00,
2013-08-02 21:22:00,61.5,51.6,0.00,East,91,3.0,5.9,70,0.00,,,0.00,WUHU216CR1000,2013-08-03 04:22:00,
2013-08-02 21:27:00,61.5,51.6,0.00,East,91,3.0,5.9,70,0.00,,,0.00,WUHU216CR1000,2013-08-03 04:27:00,
2013-08-02 21:32:00,60.7,51.5,0.00,East,85,2.5,5.9,72,0.00,,,0.00,WUHU216CR1000,2013-08-03 04:32:00,
2013-08-02 21:37:00,60.7,51.5,0.00,East,85,2.5,5.9,72,0.00,,,0.00,WUHU216CR1000,2013-08-03 04:37:00,
2013-08-02 21:42:00,60.7,51.5,0.00,East,85,2.5,5.9,72,0.00,,,0.00,WUHU216CR1000,2013-08-03 04:42:00,
2013-08-02 21:47:00,59.7,51.3,0.00,East,97,2.6,5.9,74,0.00,,,0.00,WUHU216CR1000,2013-08-03 04:47:00,
2013-08-02 21:52:00,59.7,51.3,0.00,East,97,2.6,4.9,74,0.00,,,0.00,WUHU216CR1000,2013-08-03 04:52:00,
2013-08-02 21:57:00,59.7,51.3,0.00,East,97,2.6,4.9,74,0.00,,,0.00,WUHU216CR1000,2013-08-03 04:57:00,
2013-08-02 22:02:00,58.5,51.1,0.00,East,97,1.7,4.9,76,0.00,,,0.00,WUHU216CR1000,2013-08-03 05:02:00,
2013-08-02 22:07:00,58.5,51.1,0.00,East,97,1.7,3.8,76,0.00,,,0.00,WUHU216CR1000,2013-08-03 05:07:00,
2013-08-02 22:12:00,58.5,51.1,0.00,East,97,1.7,3.8,76,0.00,,,0.00,WUHU216CR1000,2013-08-03 05:12:00,
2013-08-02 22:17:00,57.8,50.9,0.00,ESE,102,1.0,3.8,78,0.00,,,0.00,WUHU216CR1000,2013-08-03 05:17:00,
2013-08-02 22:22:00,57.8,50.9,0.00,ESE,102,1.0,3.1,78,0.00,,,0.00,WUHU216CR1000,2013-08-03 05:22:00,
2013-08-02 22:27:00,57.8,50.9,0.00,ESE,102,1.0,3.1,78,0.00,,,0.00,WUHU216CR1000,2013-08-03 05:27:00,
2013-08-02 22:32:00,56.9,50.7,0.00,SE,126,1.4,3.9,80,0.00,,,0.00,WUHU216CR1000,2013-08-03 05:32:00,
2013-08-02 22:37:00,56.9,50.7,0.00,SE,126,1.4,3.9,80,0.00,,,0.00,WUHU216CR1000,2013-08-03 05:37:00,
2013-08-02 22:42:00,56.9,50.7,0.00,SE,126,1.4,3.9,80,0.00,,,0.00,WUHU216CR1000,2013-08-03 05:42:00,
2013-08-02 22:47:00,56.3,50.6,0.00,ESE,104,1.7,4.1,81,0.00,,,0.00,WUHU216CR1000,2013-08-03 05:47:00,
2013-08-02 22:52:00,56.3,50.6,0.00,ESE,104,1.7,4.1,81,0.00,,,0.00,WUHU216CR1000,2013-08-03 05:52:00,
2013-08-02 22:57:00,56.3,50.6,0.00,ESE,104,1.7,4.1,81,0.00,,,0.00,WUHU216CR1000,2013-08-03 05:57:00,
2013-08-02 23:02:00,55.7,50.5,0.00,East,98,1.8,4.1,83,0.00,,,0.00,WUHU216CR1000,2013-08-03 06:02:00,
2013-08-02 23:07:00,55.7,50.5,0.00,East,98,1.8,3.9,83,0.00,,,0.00,WUHU216CR1000,2013-08-03 06:07:00,
2013-08-02 23:12:00,55.7,50.5,0.00,East,98,1.8,3.9,83,0.00,,,0.00,WUHU216CR1000,2013-08-03 06:12:00,
2013-08-02 23:17:00,55.2,50.5,0.00,East,87,1.6,4.2,84,0.00,,,0.00,WUHU216CR1000,2013-08-03 06:17:00,
2013-08-02 23:22:00,55.2,50.5,0.00,East,87,1.6,4.2,84,0.00,,,0.00,WUHU216CR1000,2013-08-03 06:22:00,
2013-08-02 23:27:00,55.2,50.5,0.00,East,87,1.6,4.2,84,0.00,,,0.00,WUHU216CR1000,2013-08-03 06:27:00,
2013-08-02 23:32:00,54.7,50.3,0.00,East,88,1.5,4.2,85,0.00,,,0.00,WUHU216CR1000,2013-08-03 06:32:00,
2013-08-02 23:37:00,54.7,50.3,0.00,East,88,1.5,3.4,85,0.00,,,0.00,WUHU216CR1000,2013-08-03 06:37:00,
2013-08-02 23:42:00,54.7,50.3,0.00,East,88,1.5,3.4,85,0.00,,,0.00,WUHU216CR1000,2013-08-03 06:42:00,
2013-08-02 23:47:00,54.2,50.4,0.00,ESE,105,1.5,3.4,87,0.00,,,0.00,WUHU216CR1000,2013-08-03 06:47:00,
2013-08-02 23:52:00,54.2,50.4,0.00,ESE,105,1.5,3.1,87,0.00,,,0.00,WUHU216CR1000,2013-08-03 06:52:00,
2013-08-02 23:57:00,54.2,50.4,0.00,ESE,105,1.5,3.1,87,0.00,,,0.00,WUHU216CR1000,2013-08-03 06:57:00,